createdAt,value
2018-09-03T00:00:23.715Z,22.65
2018-09-03T00:05:16.906Z,22.62
2018-09-03T00:10:09.986Z,22.65
2018-09-03T00:15:03.288Z,22.79
2018-09-03T00:19:56.812Z,22.75
2018-09-03T00:24:49.846Z,22.75
2018-09-03T00:29:42.987Z,22.68
2018-09-03T00:34:41.793Z,22.68
2018-09-03T00:39:40.399Z,22.64
2018-09-03T00:44:38.898Z,22.50
2018-09-03T00:49:32.105Z,22.50
2018-09-03T00:54:25.512Z,22.45
2018-09-03T00:59:18.958Z,22.51
2018-09-03T01:04:11.971Z,22.68
2018-09-03T01:09:07.280Z,22.68
2018-09-03T01:14:00.372Z,22.62
2018-09-03T01:18:54.945Z,22.75
2018-09-03T01:23:47.971Z,22.59
2018-09-03T01:28:40.970Z,22.55
2018-09-03T01:33:34.168Z,22.40
2018-09-03T01:38:27.295Z,22.32
2018-09-03T01:43:20.272Z,22.22
2018-09-03T01:48:16.859Z,22.37
2018-09-03T01:53:10.040Z,22.29
2018-09-03T01:58:03.167Z,22.33
2018-09-03T02:02:56.587Z,22.24
2018-09-03T02:07:49.753Z,22.13
2018-09-03T02:12:42.885Z,22.13
2018-09-03T02:17:36.002Z,22.05
2018-09-03T02:22:29.080Z,22.10
2018-09-03T02:27:22.238Z,22.01
2018-09-03T02:32:15.222Z,21.88
2018-09-03T02:37:08.482Z,21.92
2018-09-03T02:42:01.619Z,21.94
2018-09-03T02:46:54.825Z,21.97
2018-09-03T02:51:47.818Z,21.93
2018-09-03T02:56:40.905Z,21.91
2018-09-03T03:01:34.001Z,21.78
2018-09-03T03:06:27.116Z,21.90
2018-09-03T03:11:20.202Z,21.88
2018-09-03T03:16:13.436Z,21.94
2018-09-03T03:21:06.825Z,22.26
2018-09-03T03:25:59.965Z,22.21
2018-09-03T03:30:53.050Z,22.05
2018-09-03T03:35:46.253Z,21.63
2018-09-03T03:40:39.562Z,21.54
2018-09-03T03:45:32.616Z,21.26
2018-09-03T03:50:25.820Z,21.17
2018-09-03T03:55:19.019Z,21.01
2018-09-03T04:00:12.170Z,20.98
2018-09-03T04:05:05.796Z,20.79
2018-09-03T04:09:58.840Z,20.70
2018-09-03T04:14:52.006Z,20.44
2018-09-03T04:19:49.550Z,20.47
2018-09-03T04:24:42.817Z,20.39
2018-09-03T04:29:35.824Z,20.50
2018-09-03T04:34:28.970Z,20.69
2018-09-03T04:39:22.191Z,20.70
2018-09-03T04:44:15.429Z,20.77
2018-09-03T04:49:08.659Z,20.82
2018-09-03T04:54:01.932Z,21.03
2018-09-03T04:58:57.432Z,21.14
2018-09-03T05:03:54.812Z,21.32
2018-09-03T05:08:53.685Z,21.60
2018-09-03T05:13:50.296Z,21.70
2018-09-03T05:18:47.625Z,21.81
2018-09-03T05:23:42.335Z,22.13
2018-09-03T05:28:35.455Z,22.34
2018-09-03T05:33:29.106Z,22.49
2018-09-03T05:38:23.855Z,22.75
2018-09-03T05:43:17.773Z,22.95
2018-09-03T05:48:15.757Z,23.14
2018-09-03T05:53:08.955Z,23.37
2018-09-03T05:58:02.043Z,23.59
2018-09-03T06:02:55.118Z,23.87
2018-09-03T06:07:48.530Z,24.13
2018-09-03T06:12:42.046Z,24.38
2018-09-03T06:17:36.144Z,24.52
2018-09-03T06:22:29.466Z,24.71
2018-09-03T06:27:24.056Z,24.81
2018-09-03T06:32:18.692Z,24.98
2018-09-03T06:37:11.739Z,25.11
2018-09-03T06:42:04.969Z,25.24
2018-09-03T06:46:58.051Z,25.48
2018-09-03T06:51:51.618Z,25.64
2018-09-03T06:56:44.712Z,26.02
2018-09-03T07:01:38.449Z,26.21
2018-09-03T07:06:32.775Z,26.33
2018-09-03T07:11:25.965Z,26.50
2018-09-03T07:16:19.006Z,26.72
2018-09-03T07:21:12.917Z,26.87
2018-09-03T07:26:06.661Z,26.85
2018-09-03T07:31:01.100Z,27.03
2018-09-03T07:35:54.115Z,27.18
2018-09-03T07:40:47.267Z,27.26
2018-09-03T07:45:40.367Z,27.51
2018-09-03T07:50:34.467Z,27.51
2018-09-03T07:55:27.795Z,27.68
2018-09-03T08:00:20.765Z,27.80
2018-09-03T08:05:14.116Z,27.86
2018-09-03T08:10:08.869Z,28.03
2018-09-03T08:15:02.184Z,28.20
2018-09-03T08:19:55.395Z,28.31
2018-09-03T08:24:48.719Z,28.48
2018-09-03T08:29:43.410Z,28.53
2018-09-03T08:34:36.515Z,28.82
2018-09-03T08:39:36.153Z,28.84
2018-09-03T08:44:29.682Z,29.09
2018-09-03T08:49:22.739Z,29.17
2018-09-03T08:54:16.020Z,29.43
2018-09-03T08:59:09.032Z,29.64
2018-09-03T09:04:02.193Z,29.69
2018-09-03T09:08:55.923Z,30.19
2018-09-03T09:13:49.011Z,30.10
2018-09-03T09:18:42.520Z,30.12
2018-09-03T09:23:35.815Z,30.09
2018-09-03T09:28:31.736Z,29.62
2018-09-03T09:33:26.860Z,29.47
2018-09-03T09:38:20.023Z,29.34
2018-09-03T09:43:13.048Z,29.42
2018-09-03T09:48:06.203Z,29.53
2018-09-03T09:52:59.574Z,29.70
2018-09-03T09:57:52.792Z,30.04
2018-09-03T10:02:45.941Z,30.40
2018-09-03T10:07:39.192Z,30.07
2018-09-03T10:12:32.929Z,30.24
2018-09-03T10:17:26.228Z,30.24
2018-09-03T10:22:19.334Z,30.38
2018-09-03T10:27:13.053Z,30.47
2018-09-03T10:32:06.506Z,30.46
2018-09-03T10:36:59.725Z,31.04
2018-09-03T10:41:52.931Z,31.08
2018-09-03T10:46:47.446Z,31.02
2018-09-03T10:51:40.677Z,30.86
2018-09-03T10:56:33.685Z,30.87
2018-09-03T11:01:27.349Z,31.15
2018-09-03T11:06:20.416Z,31.12
2018-09-03T11:11:13.709Z,31.16
2018-09-03T11:16:07.052Z,30.65
2018-09-03T11:21:00.157Z,30.80
2018-09-03T11:25:54.202Z,30.84
2018-09-03T11:30:47.582Z,30.52
2018-09-03T11:35:42.237Z,30.30
2018-09-03T11:40:35.500Z,30.70
2018-09-03T11:45:28.785Z,30.70
2018-09-03T11:50:21.844Z,30.89
2018-09-03T11:55:15.230Z,31.03
2018-09-03T12:00:11.806Z,31.03
2018-09-03T12:05:05.241Z,30.92
2018-09-03T12:09:58.351Z,31.41
2018-09-03T12:14:58.323Z,31.91
2018-09-03T12:19:51.878Z,31.74
2018-09-03T12:24:44.926Z,31.57
2018-09-03T12:29:38.101Z,31.46
2018-09-03T12:34:31.119Z,31.32
2018-09-03T12:39:24.239Z,31.48
2018-09-03T12:44:17.491Z,31.42
2018-09-03T12:49:12.130Z,31.24
2018-09-03T12:54:05.372Z,30.73
2018-09-03T12:58:58.484Z,30.48
2018-09-03T13:03:56.695Z,30.35
2018-09-03T13:08:49.877Z,30.41
2018-09-03T13:13:50.666Z,30.40
2018-09-03T13:18:44.887Z,30.37
2018-09-03T13:23:38.109Z,30.19
2018-09-03T13:28:31.325Z,30.14
2018-09-03T13:33:24.469Z,30.13
2018-09-03T13:38:17.640Z,30.18
2018-09-03T13:43:10.840Z,29.96
2018-09-03T13:48:04.108Z,30.14
2018-09-03T13:52:57.227Z,30.04
2018-09-03T13:57:50.432Z,30.05
2018-09-03T14:02:43.738Z,30.01
2018-09-03T14:07:36.772Z,30.12
2018-09-03T14:12:29.990Z,30.14
2018-09-03T14:17:23.302Z,30.04
2018-09-03T14:22:16.517Z,30.04
2018-09-03T14:27:09.880Z,29.86
2018-09-03T14:32:03.182Z,29.69
2018-09-03T14:36:56.571Z,29.60
2018-09-03T14:41:49.906Z,29.51
2018-09-03T14:46:44.545Z,29.34
2018-09-03T14:51:37.633Z,29.34
2018-09-03T14:56:30.843Z,29.33
2018-09-03T15:01:24.123Z,29.25
2018-09-03T15:06:17.426Z,29.13
2018-09-03T15:11:10.692Z,29.06
2018-09-03T15:16:03.951Z,28.83
2018-09-03T15:20:57.208Z,28.65
2018-09-03T15:25:50.386Z,28.53
2018-09-03T15:30:43.993Z,28.37
2018-09-03T15:35:37.297Z,28.22
2018-09-03T15:40:30.611Z,28.05
2018-09-03T15:45:23.784Z,27.07
2018-09-03T15:50:17.056Z,25.65
2018-09-03T15:55:10.447Z,24.99
2018-09-03T16:00:03.956Z,24.78
2018-09-03T16:04:57.153Z,24.81
2018-09-03T16:09:51.288Z,24.71
2018-09-03T16:14:48.705Z,24.79
2018-09-03T16:19:43.207Z,24.88
2018-09-03T16:24:36.997Z,24.89
2018-09-03T16:29:30.972Z,25.01
2018-09-03T16:34:24.315Z,25.15
2018-09-03T16:39:19.252Z,25.33
2018-09-03T16:44:12.740Z,25.49
2018-09-03T16:49:06.372Z,25.60
2018-09-03T16:54:02.405Z,25.72
2018-09-03T16:58:55.842Z,25.74
2018-09-03T17:03:49.319Z,25.72
2018-09-03T17:08:46.091Z,25.64
2018-09-03T17:13:42.049Z,25.52
2018-09-03T17:18:36.590Z,25.49
2018-09-03T17:23:31.241Z,25.34
2018-09-03T17:28:25.296Z,25.29
2018-09-03T17:33:21.527Z,25.33
2018-09-03T17:38:16.329Z,25.30
2018-09-03T17:43:11.403Z,25.18
2018-09-03T17:48:07.790Z,25.18
2018-09-03T17:53:08.965Z,25.03
2018-09-03T17:58:03.114Z,24.89
2018-09-03T18:03:01.259Z,24.73
2018-09-03T18:07:57.408Z,24.69
2018-09-03T18:12:52.869Z,24.54
2018-09-03T18:17:52.577Z,24.44
2018-09-03T18:22:45.600Z,24.42
2018-09-03T18:27:43.632Z,24.29
2018-09-03T18:32:38.620Z,24.15
2018-09-03T18:37:37.454Z,24.11
2018-09-03T18:42:31.245Z,24.03
2018-09-03T18:47:26.516Z,24.01
2018-09-03T18:52:21.414Z,23.97
2018-09-03T18:57:15.660Z,23.79
2018-09-03T19:02:09.682Z,23.66
2018-09-03T19:07:04.727Z,23.55
2018-09-03T19:11:59.422Z,23.44
2018-09-03T19:16:58.322Z,23.38
2018-09-03T19:21:53.307Z,23.22
2018-09-03T19:26:48.167Z,23.13
2018-09-03T19:31:48.407Z,23.17
2018-09-03T19:36:44.247Z,23.13
2018-09-03T19:41:38.232Z,22.87
2018-09-03T19:46:36.113Z,22.49
2018-09-03T19:51:31.304Z,22.48
2018-09-03T19:56:29.436Z,22.43
2018-09-03T20:01:23.918Z,22.48
2018-09-03T20:06:24.845Z,22.33
2018-09-03T20:11:20.244Z,22.09
2018-09-03T20:16:14.707Z,21.98
2018-09-03T20:21:12.610Z,21.86
2018-09-03T20:26:09.156Z,21.99
2018-09-03T20:31:07.629Z,21.78
2018-09-03T20:36:05.947Z,21.69
2018-09-03T20:41:00.623Z,21.67
2018-09-03T20:45:56.906Z,21.72
2018-09-03T20:50:51.063Z,21.67
2018-09-03T20:55:49.953Z,21.50
2018-09-03T21:00:51.433Z,21.60
2018-09-03T21:05:46.048Z,21.45
2018-09-03T21:10:40.367Z,21.33
2018-09-03T21:15:36.479Z,21.21
2018-09-03T21:20:31.680Z,21.24
2018-09-03T21:25:30.132Z,21.26
2018-09-03T21:30:24.149Z,21.34
2018-09-03T21:35:19.894Z,21.34
2018-09-03T21:40:14.677Z,21.27
2018-09-03T21:45:09.323Z,21.30
2018-09-03T21:50:04.479Z,21.31
2018-09-03T21:55:02.697Z,21.25
2018-09-03T21:59:56.775Z,21.03
2018-09-03T22:04:54.812Z,20.87
2018-09-03T22:09:48.688Z,20.76
2018-09-03T22:14:41.934Z,20.72
2018-09-03T22:19:36.860Z,20.72
2018-09-03T22:24:32.847Z,20.65
2018-09-03T22:29:27.770Z,20.63
2018-09-03T22:34:26.363Z,20.63
2018-09-03T22:39:23.588Z,20.70
2018-09-03T22:44:19.933Z,20.76
2018-09-03T22:49:16.606Z,20.61
2018-09-03T22:54:11.493Z,20.70
2018-09-03T22:59:06.153Z,20.83
2018-09-03T23:04:08.276Z,20.80
2018-09-03T23:09:04.642Z,20.71
2018-09-03T23:13:59.904Z,20.30
2018-09-03T23:18:57.260Z,20.11
2018-09-03T23:23:56.090Z,20.03
2018-09-03T23:28:52.390Z,19.89
2018-09-03T23:33:46.195Z,19.86
2018-09-03T23:38:40.279Z,19.88
2018-09-03T23:43:35.634Z,19.96
2018-09-03T23:48:29.510Z,19.95
2018-09-03T23:53:23.079Z,20.03
2018-09-03T23:58:16.241Z,20.07
